Flight Track Log - Related Links

Times and Time Zones

All times are in EST time to prevent confusion due to time zone crossing. See the EJA122 flight status page for this flight to view local times or setup timezone preferences in your user account.

Time Position Orientation Groundspeed Altitude Reporting Facility
EST Latitude Longitude Course Direction KTS MPH feet Rate Location/Type
Mon 07:58:42 AM 37.6325 -97.4317 192° South 185 213 2,200  Level Kansas City Center
Mon 07:59:12 AM 37.6078 -97.4381 192° South 203 234 4,200 3,971 Climbing Kansas City Center
Mon 07:59:50 AM 37.5881 -97.4031 125° Southeast 208 239 6,700 3,934 Climbing Kansas City Center
Mon 08:00:13 AM 37.5903 -97.3669 86° East 250 288 8,200 3,000 Climbing Kansas City Center
Mon 08:00:52 AM 37.5914 -97.3108 89° East 260 299 9,800 2,520 Climbing Kansas City Center
Mon 08:01:53 AM 37.5961 -97.2022 87° East 300 345 12,400 2,164 Climbing Kansas City Center
Mon 08:02:54 AM 37.6006 -97.0725 87° East 362 417 14,200 1,918 Climbing Kansas City Center
Mon 08:03:55 AM 37.6067 -96.9325 87° East 395 455 16,300 2,115 Climbing Kansas City Center
Mon 08:04:56 AM 37.6117 -96.7878 87° East 411 473 18,500 1,967 Climbing Kansas City Center
Mon 08:05:57 AM 37.6189 -96.6414 86° East 416 479 20,300 1,672 Climbing Kansas City Center
Mon 08:06:58 AM 37.6239 -96.4928 88° East 422 486 21,900 1,721 Climbing Kansas City Center
Mon 08:07:59 AM 37.6292 -96.3150 88° East 424 488 23,800 1,770 Climbing Kansas City Center
Mon 08:09:00 AM 37.6342 -96.1631 88° East 426 490 25,500 1,525 Climbing Kansas City Center
Mon 08:10:01 AM 37.6383 -96.0114 88° East 428 493 26,900 738 Climbing Kansas City Center
Mon 08:11:02 AM 37.6436 -95.8558 87° East 432 497 27,000 49 Climbing Kansas City Center
Mon 08:12:04 AM 37.6469 -95.6931 88° East 445 512 27,000  Level Kansas City Center
Mon 08:13:05 AM 37.6719 -95.5136 80° East 512 589 27,000  Level Kansas City Center
Mon 08:14:06 AM 37.6972 -95.3419 79° East 505 581 27,000  Level Kansas City Center
Mon 08:15:07 AM 37.7222 -95.1669 80° East 503 579 27,000  Level Kansas City Center
Mon 08:16:08 AM 37.7478 -94.9847 80° East 505 581 27,000  Level Kansas City Center
Mon 08:17:10 AM 37.7714 -94.8206 80° East 502 578 27,000  Level Kansas City Center
Mon 08:18:11 AM 37.7983 -94.6281 80° East 500 575 27,000  Level Kansas City Center
Mon 08:19:12 AM 37.8206 -94.4631 80° East 499 574 27,000  Level Kansas City Center
Mon 08:20:14 AM 37.8450 -94.2794 80° East 493 567 27,000  Level Kansas City Center
Mon 08:21:15 AM 37.8672 -94.1058 81° East 497 572 27,000  Level Kansas City Center
Mon 08:22:16 AM 37.8908 -93.9322 80° East 498 573 27,000  Level Kansas City Center
Mon 08:23:18 AM 37.9136 -93.7589 80° East 499 574 27,000  Level Kansas City Center
Mon 08:24:19 AM 37.9356 -93.5856 81° East 499 574 27,000  Level Kansas City Center
Mon 08:25:21 AM 37.9572 -93.4117 81° East 499 574 27,000  Level Kansas City Center
Mon 08:26:22 AM 37.9811 -93.2364 80° East 501 577 27,000  Level Kansas City Center
Mon 08:27:23 AM 38.0106 -93.0250 80° East 506 582 27,000  Level Kansas City Center
Mon 08:28:25 AM 38.0311 -92.8483 82° East 503 579 27,000  Level Kansas City Center
Mon 08:29:26 AM 38.0489 -92.6983 81° East 502 578 27,000  Level Kansas City Center
Mon 08:30:28 AM 38.0703 -92.5253 81° East 499 574 27,000  Level Kansas City Center
Mon 08:31:29 AM 38.0939 -92.3500 80° East 504 580 27,000  Level Kansas City Center
Mon 08:32:31 AM 38.1161 -92.1392 82° East 505 581 27,000  Level Kansas City Center
Mon 08:33:32 AM 38.1369 -91.9572 82° East 502 578 27,000  Level Kansas City Center
Mon 08:34:34 AM 38.1558 -91.7831 82° East 497 572 27,000  Level Kansas City Center
Mon 08:35:35 AM 38.1753 -91.6100 82° East 495 570 27,000  Level Kansas City Center
Mon 08:36:37 AM 38.1947 -91.4369 82° East 494 568 27,000  Level Kansas City Center
Mon 08:37:38 AM 38.2117 -91.2764 82° East 494 568 27,000  Level Kansas City Center
Mon 08:38:40 AM 38.2300 -91.1050 82° East 493 567 27,000  Level Kansas City Center
Mon 08:39:41 AM 38.2517 -90.8981 82° East 495 570 27,000  Level Kansas City Center
Mon 08:40:43 AM 38.2692 -90.7256 83° East 495 570 27,000  Level Kansas City Center
Mon 08:41:44 AM 38.2864 -90.5533 83° East 496 571 27,000  Level Kansas City Center
Mon 08:42:46 AM 38.3036 -90.3808 83° East 496 571 27,000  Level Kansas City Center
Mon 08:43:47 AM 38.3208 -90.2089 83° East 497 572 27,000  Level Kansas City Center
Mon 08:44:49 AM 38.3372 -90.0361 83° East 496 571 27,000  Level Kansas City Center
Mon 08:45:51 AM 38.3592 -89.8211 83° East 501 577 27,000  Level Kansas City Center
Mon 08:46:52 AM 38.3747 -89.6542 83° East 496 571 27,000  Level Kansas City Center
Mon 08:47:54 AM 38.3919 -89.4686 83° East 492 566 27,000  Level Kansas City Center
Mon 08:48:56 AM 38.4081 -89.2944 83° East 496 571 27,000  Level Kansas City Center
Mon 08:49:57 AM 38.4186 -89.1061 86° East 497 572 27,000  Level Kansas City Center
Mon 08:50:59 AM 38.4097 -88.9303 94° East 498 573 27,000  Level Kansas City Center
Mon 08:52:00 AM 38.4019 -88.7533 93° East 501 577 27,000  Level Kansas City Center
Mon 08:53:02 AM 38.3953 -88.5722 93° East 497 572 27,000  Level Kansas City Center
Mon 08:54:04 AM 38.3869 -88.3931 93° East 499 574 27,000  Level Kansas City Center
Mon 08:55:05 AM 38.3792 -88.2142 93° East 502 578 27,000  Level Kansas City Center
Mon 08:56:07 AM 38.3697 -88.0364 94° East 502 578 27,000  Level Kansas City Center
Mon 08:57:08 AM 38.3606 -87.8572 94° East 503 579 27,000 -146 Level Kansas City Center
Mon 08:58:10 AM 38.3506 -87.6775 94° East 506 582 26,700 -1,016 Descending Kansas City Center
Mon 08:59:12 AM 38.3414 -87.5022 94° East 499 574 24,900 -1,868 Descending Kansas City Center
Mon 09:00:41 AM 38.3236 -87.2394 95° East 470 541 22,000 -2,106 Descending Indianapolis Center
Mon 09:01:43 AM 38.3017 -87.0808 100° East 454 522 19,600 -2,468 Descending Indianapolis Center
Mon 09:02:45 AM 38.2808 -86.9025 98° East 458 527 16,900 -2,419 Descending Indianapolis Center
Mon 09:03:47 AM 38.2639 -86.7514 98° East 437 503 14,600 -2,032 Descending Indianapolis Center
Mon 09:04:49 AM 38.2819 -86.6044 81° East 422 486 12,700 -1,790 Descending Indianapolis Center
Mon 09:05:51 AM 38.2986 -86.4597 82° East 417 480 10,900 -1,452 Descending Indianapolis Center
Mon 09:06:53 AM 38.3139 -86.3353 81° East 360 414 9,700 -1,161 Descending Indianapolis Center
Mon 09:07:55 AM 38.3278 -86.2236 81° East 322 371 8,500 -1,113 Descending Indianapolis Center
Mon 09:08:57 AM 38.3406 -86.1172 81° East 307 353 7,400 -1,161 Descending Indianapolis Center
Mon 09:09:59 AM 38.3483 -85.9953 85° East 294 338 6,100 -1,306 Descending Indianapolis Center
Mon 09:11:01 AM 38.3264 -85.8992 106° East 284 327 4,700 -1,597 Descending Indianapolis Center
Mon 09:12:03 AM 38.3000 -85.8028 109° East 286 329 2,800 -1,161 Descending Indianapolis Center
Mon 09:13:05 AM 38.2586 -85.7553 138° Southeast 224 258 2,300 -629 Descending Indianapolis Center
Mon 09:14:07 AM 38.2181 -85.7406 164° South 181 208 1,500 -774 Descending Indianapolis Center
Mon 09:16:00 AM 38.1741 -85.7365 302° West  Level Estimated
Mon 09:23:00 AM 38.1741 -85.7365 293° West  Level Estimated

Login

Don't have an account? Register now (free) for customized features, flight alerts, and more!